createdAt,value
2022-12-04T08:14:26.016Z,101436.14
2022-12-04T08:20:36.602Z,101444.03
2022-12-04T08:23:45.927Z,101447.21
2022-12-04T08:26:50.477Z,101446.42
2022-12-04T08:29:59.604Z,101446.23
2022-12-04T08:33:07.849Z,101441.47
2022-12-04T08:36:14.831Z,101440.58
2022-12-04T08:39:32.825Z,101439.95
2022-12-04T08:42:41.384Z,101443.77
2022-12-04T08:45:51.132Z,101438.80
2022-12-04T08:48:59.224Z,101436.37
2022-12-04T08:52:08.032Z,101438.79
2022-12-04T08:55:10.867Z,101440.35
2022-12-04T08:58:23.663Z,101442.23
2022-12-04T09:01:37.096Z,101442.13
2022-12-04T09:05:12.865Z,101438.64
2022-12-04T09:24:12.119Z,101426.63
2022-12-04T09:28:01.536Z,101427.91
2022-12-04T09:30:52.195Z,101426.63
2022-12-04T09:34:17.198Z,101425.45
2022-12-04T11:14:30.965Z,101337.64
2022-12-04T11:22:19.144Z,101321.01
2022-12-04T11:25:10.276Z,101322.56
2022-12-04T11:27:50.304Z,101325.63
2022-12-04T11:33:53.946Z,101337.15
2022-12-04T11:36:39.262Z,101341.80
2022-12-04T11:40:00.874Z,101340.41
2022-12-04T11:50:56.125Z,101337.36
2022-12-04T12:03:17.363Z,101327.62
2022-12-04T12:10:49.964Z,101334.12
2022-12-04T12:18:19.158Z,101328.94
2022-12-04T12:25:36.409Z,101315.95
2022-12-04T12:28:38.293Z,101310.58
2022-12-04T12:31:16.238Z,101305.55
2022-12-04T12:33:55.049Z,101301.84
2022-12-04T12:36:41.356Z,101303.58
2022-12-04T12:40:09.070Z,101301.46
2022-12-04T12:43:26.070Z,101297.23
2022-12-04T12:46:20.668Z,101302.04
2022-12-04T12:49:16.976Z,101305.98
2022-12-04T12:52:23.898Z,101307.18
2022-12-04T12:55:15.176Z,101308.66
2022-12-04T12:58:17.343Z,101312.00
2022-12-04T13:00:56.596Z,101317.45
2022-12-04T13:03:35.889Z,101322.14
2022-12-04T13:06:13.960Z,101320.73
2022-12-04T13:09:05.154Z,101316.88
2022-12-04T13:11:33.682Z,101310.61
2022-12-04T13:14:04.199Z,101309.55
2022-12-04T13:16:40.703Z,101305.08
2022-12-04T13:19:23.167Z,101303.69
2022-12-04T13:26:38.543Z,101302.77
2022-12-04T13:29:26.405Z,101309.86
2022-12-04T13:32:30.442Z,101314.02
2022-12-04T13:35:10.349Z,101318.33
2022-12-04T13:38:41.469Z,101318.70
2022-12-04T13:41:21.362Z,101319.38
2022-12-04T13:43:55.037Z,101318.91
2022-12-04T13:46:48.578Z,101321.29
2022-12-04T13:53:17.702Z,101329.39
2022-12-04T13:56:07.990Z,101332.98
2022-12-04T13:59:42.641Z,101339.00
2022-12-04T14:02:32.937Z,101337.39
2022-12-04T14:05:10.718Z,101333.60
2022-12-04T14:07:43.518Z,101337.02
2022-12-04T14:10:29.361Z,101339.06
2022-12-04T14:13:20.548Z,101340.19
2022-12-04T14:16:18.916Z,101342.12
2022-12-04T14:19:23.045Z,101342.29
2022-12-04T14:21:52.983Z,101340.14
2022-12-04T14:24:43.658Z,101343.95
2022-12-04T14:27:36.423Z,101347.60
2022-12-04T14:30:05.823Z,101353.08
2022-12-04T14:32:37.860Z,101352.98
2022-12-04T14:35:22.756Z,101354.45
2022-12-04T14:38:17.548Z,101352.93
2022-12-04T14:40:50.665Z,101351.79
2022-12-04T14:44:02.900Z,101355.05
2022-12-04T14:46:58.904Z,101356.83
2022-12-04T14:50:14.509Z,101357.70
2022-12-04T14:52:53.077Z,101358.31
2022-12-04T14:55:42.214Z,101358.02
2022-12-04T14:58:34.524Z,101359.54
2022-12-04T15:01:05.170Z,101356.73
2022-12-04T15:03:48.568Z,101362.88
2022-12-04T15:09:40.277Z,101355.71
2022-12-04T15:12:38.144Z,101356.09
2022-12-04T15:15:27.076Z,101361.14
2022-12-04T15:17:58.460Z,101366.77
2022-12-04T15:20:50.798Z,101364.93
2022-12-04T15:23:26.977Z,101368.38
2022-12-04T15:26:03.811Z,101370.21
2022-12-04T15:28:43.120Z,101368.63
2022-12-04T15:31:24.752Z,101367.80
2022-12-04T15:33:58.935Z,101368.02
2022-12-04T15:36:41.534Z,101368.55
2022-12-04T15:39:20.139Z,101363.73
2022-12-04T15:46:36.779Z,101362.38
2022-12-04T15:49:36.158Z,101360.50
2022-12-04T15:52:21.801Z,101361.44
2022-12-04T16:18:21.001Z,101348.98
2022-12-04T16:20:50.893Z,101346.36
2022-12-04T16:23:20.017Z,101349.58
2022-12-04T16:25:53.521Z,101345.55
2022-12-04T16:28:26.596Z,101349.02
2022-12-04T16:30:58.080Z,101345.93
2022-12-04T16:40:34.205Z,101342.39
2022-12-04T16:43:19.339Z,101342.61
2022-12-04T16:45:51.832Z,101340.29
2022-12-04T16:48:21.538Z,101335.48
2022-12-04T16:52:14.766Z,101335.99
2022-12-04T17:10:52.426Z,101336.00
2022-12-04T17:13:21.524Z,101343.71
2022-12-04T17:15:50.804Z,101338.10
2022-12-04T17:18:21.445Z,101336.81
2022-12-04T17:20:49.763Z,101330.92
2022-12-04T17:23:17.401Z,101335.51
2022-12-04T17:25:45.351Z,101337.15
2022-12-04T17:28:14.037Z,101341.95
2022-12-04T17:34:59.562Z,101328.27
2022-12-04T17:37:31.123Z,101325.12
2022-12-04T17:40:33.491Z,101324.96
2022-12-04T17:43:01.337Z,101319.08
2022-12-04T17:45:28.952Z,101318.13
2022-12-04T17:47:56.417Z,101312.69
2022-12-04T17:50:23.812Z,101312.05
2022-12-04T17:52:51.823Z,101309.67
2022-12-04T17:55:25.920Z,101310.11
2022-12-04T17:57:54.738Z,101309.42
2022-12-04T18:00:28.620Z,101313.21
2022-12-04T18:02:59.979Z,101315.75
2022-12-04T18:05:31.886Z,101316.38
2022-12-04T18:08:00.876Z,101312.39
2022-12-04T18:10:36.104Z,101311.95
2022-12-04T18:13:06.946Z,101312.03
2022-12-04T18:15:36.956Z,101313.23
2022-12-04T18:18:07.886Z,101318.70
2022-12-04T18:20:38.890Z,101320.45
2022-12-04T18:23:09.051Z,101320.92
2022-12-04T18:26:19.540Z,101315.63
2022-12-04T18:29:28.040Z,101315.93
2022-12-04T18:33:07.537Z,101321.39
2022-12-04T18:35:44.413Z,101315.59
2022-12-04T18:38:21.913Z,101322.92
2022-12-04T18:40:54.930Z,101327.69
2022-12-04T18:43:30.956Z,101328.97
2022-12-04T18:46:08.230Z,101326.30
2022-12-04T18:51:48.431Z,101327.91
2022-12-04T18:54:23.239Z,101331.71
2022-12-04T18:56:55.642Z,101334.93
2022-12-04T18:59:28.945Z,101337.20
2022-12-04T19:01:58.938Z,101341.94
2022-12-04T19:04:33.956Z,101343.24
2022-12-04T19:07:04.861Z,101342.61
2022-12-04T19:15:34.890Z,101346.61
2022-12-04T19:18:07.209Z,101346.02
2022-12-04T19:21:17.370Z,101345.55
2022-12-04T19:24:01.195Z,101342.98
2022-12-04T19:26:31.780Z,101335.20
2022-12-04T19:29:02.821Z,101331.68
2022-12-04T19:31:36.719Z,101325.19
2022-12-04T19:34:06.837Z,101322.92
2022-12-04T19:36:36.259Z,101322.39
2022-12-04T19:39:07.378Z,101312.48
2022-12-04T19:41:37.478Z,101308.02
2022-12-04T19:44:32.466Z,101307.53
2022-12-04T19:47:00.995Z,101308.91
2022-12-04T19:49:29.818Z,101307.88
2022-12-04T19:51:58.787Z,101301.64
2022-12-04T19:54:28.683Z,101299.55
2022-12-04T19:56:58.790Z,101305.96
2022-12-04T19:59:31.697Z,101311.07
2022-12-04T20:02:03.392Z,101314.73
2022-12-04T20:04:39.465Z,101325.63
2022-12-04T20:07:13.121Z,101339.07
2022-12-04T20:13:58.515Z,101358.22
2022-12-04T20:16:32.127Z,101365.19
2022-12-04T20:19:06.597Z,101369.00
2022-12-04T20:21:35.785Z,101366.15
2022-12-04T20:24:07.757Z,101364.20
2022-12-04T20:26:39.767Z,101365.98
2022-12-04T20:29:10.151Z,101373.33
2022-12-04T20:31:40.938Z,101377.17
2022-12-04T20:34:18.868Z,101377.99
2022-12-04T20:36:48.847Z,101373.58
2022-12-04T20:39:19.663Z,101374.27
2022-12-04T20:41:50.055Z,101369.34
2022-12-04T20:44:20.398Z,101372.65
2022-12-04T20:46:54.418Z,101373.02
2022-12-04T20:49:36.876Z,101373.48
2022-12-04T20:52:07.295Z,101367.88
2022-12-04T20:54:41.591Z,101366.42
2022-12-04T20:57:11.256Z,101365.64
2022-12-04T20:59:40.459Z,101357.73
2022-12-04T21:02:11.729Z,101352.17
2022-12-04T21:04:41.306Z,101340.90
2022-12-04T21:07:10.223Z,101327.38
2022-12-04T21:09:39.857Z,101320.30
2022-12-04T21:12:29.210Z,101311.05
2022-12-04T21:15:18.242Z,101310.14
2022-12-04T21:17:48.816Z,101311.27
2022-12-04T21:20:17.727Z,101313.54
2022-12-04T21:22:47.582Z,101318.70
2022-12-04T21:25:17.572Z,101313.73
2022-12-04T21:27:47.362Z,101317.96
2022-12-04T21:30:19.395Z,101322.98
2022-12-04T21:32:50.547Z,101319.81
2022-12-04T21:35:19.229Z,101315.04
2022-12-04T21:37:49.088Z,101320.19
2022-12-04T21:40:19.048Z,101322.04
2022-12-04T21:42:56.520Z,101323.58
2022-12-04T21:45:29.725Z,101324.05
2022-12-04T21:48:01.767Z,101330.52
2022-12-04T21:50:47.198Z,101327.54
2022-12-04T21:53:22.917Z,101325.58
2022-12-04T21:56:14.119Z,101323.38
2022-12-04T21:58:44.927Z,101316.05
2022-12-04T22:01:23.128Z,101317.33
2022-12-04T22:04:00.817Z,101313.92
2022-12-04T22:06:36.758Z,101308.95
2022-12-04T22:13:32.124Z,101311.98
2022-12-04T22:16:19.598Z,101304.77
2022-12-04T22:18:50.152Z,101308.04
2022-12-04T22:21:46.598Z,101306.21
2022-12-04T22:24:20.906Z,101301.14
2022-12-04T22:26:57.823Z,101298.67
2022-12-04T22:29:51.502Z,101295.02
2022-12-04T22:32:21.664Z,101295.98
2022-12-04T22:34:55.345Z,101301.42
2022-12-04T22:37:25.152Z,101300.89
2022-12-04T22:40:04.540Z,101293.35
2022-12-04T22:42:57.092Z,101289.73
2022-12-04T22:45:25.541Z,101292.48
2022-12-04T22:48:00.758Z,101292.06
2022-12-04T22:50:32.131Z,101288.76
2022-12-04T22:53:02.523Z,101292.98
2022-12-04T22:55:32.694Z,101285.55
2022-12-04T22:58:01.616Z,101278.38
2022-12-04T23:00:32.906Z,101276.48
2022-12-04T23:03:02.470Z,101273.70
2022-12-04T23:05:38.011Z,101275.57
2022-12-04T23:08:09.741Z,101272.83
2022-12-04T23:10:43.105Z,101271.16
2022-12-04T23:13:17.219Z,101272.66
2022-12-04T23:15:53.399Z,101267.84
2022-12-04T23:18:24.723Z,101262.62
2022-12-04T23:20:55.393Z,101269.91
2022-12-04T23:23:24.476Z,101276.09
2022-12-04T23:25:53.737Z,101281.42
2022-12-04T23:28:27.322Z,101279.95
2022-12-04T23:31:03.691Z,101283.16
2022-12-04T23:33:36.717Z,101283.98
2022-12-04T23:36:08.307Z,101281.23
2022-12-04T23:38:53.091Z,101279.62
2022-12-04T23:41:35.880Z,101268.59
2022-12-04T23:44:06.173Z,101266.63
2022-12-04T23:46:38.446Z,101268.48
2022-12-04T23:49:12.762Z,101267.77
2022-12-04T23:51:42.659Z,101268.48
2022-12-04T23:54:16.710Z,101264.23
2022-12-04T23:57:05.061Z,101265.96
2022-12-04T23:59:44.904Z,101271.95
